Time;durP1;ratioP1;P1;durP2;ratioP2;P2;SDS_P1;SDS_P2;PMS_P1;PMS_P2;Temp;Humidity;BMP_temperature;BMP_pressure;BME280_temperature;BME280_humidity;BME280_pressure;Samples;Min_cycle;Max_cycle;Signal;HPM_P1;HPM_P2
2022/04/20 00:07:45;;;;;;;9.65;5.93;;;;;;;3.29;71.22;100302.03;18433959;32;20957;-64
2022/04/20 00:17:49;;;;;;;7.70;4.40;;;;;;;3.00;71.71;100304.69;18433626;32;20120;-64
2022/04/20 00:27:53;;;;;;;9.35;4.80;;;;;;;3.26;70.08;100312.25;18433197;32;20084;-64
2022/04/20 00:37:57;;;;;;;11.82;4.72;;;;;;;3.15;70.28;100311.97;18432856;32;20445;-64
2022/04/20 00:48:01;;;;;;;6.90;3.85;;;;;;;2.71;71.60;100322.81;18432500;32;20342;-64
2022/04/20 00:58:05;;;;;;;9.90;5.15;;;;;;;2.27;72.67;100330.94;18430762;32;20097;-64
2022/04/20 01:08:09;;;;;;;9.80;4.57;;;;;;;2.86;70.69;100326.62;18433071;32;20213;-64
2022/04/20 01:18:15;;;;;;;8.73;3.85;;;;;;;2.84;70.57;100323.16;18431880;32;20098;-65
2022/04/20 01:28:19;;;;;;;9.00;4.90;;;;;;;2.49;71.28;100323.88;18431693;32;20092;-64
2022/04/20 01:38:22;;;;;;;8.85;4.15;;;;;;;2.68;71.32;100339.91;18431253;32;20084;-64
2022/04/20 01:48:27;;;;;;;7.97;4.28;;;;;;;2.87;70.11;100333.53;18430617;32;20151;-64
2022/04/20 01:58:31;;;;;;;9.07;3.85;;;;;;;2.65;70.88;100348.41;18429628;32;20081;-65
2022/04/20 02:08:36;;;;;;;9.35;4.30;;;;;;;2.63;71.16;100340.62;18429346;32;20120;-64
2022/04/20 02:18:39;;;;;;;12.27;4.97;;;;;;;2.62;70.67;100344.03;18437189;32;20180;-65
2022/04/20 02:28:44;;;;;;;6.43;3.60;;;;;;;2.26;71.42;100334.34;18436548;32;20737;-65
2022/04/20 02:38:47;;;;;;;8.32;4.75;;;;;;;2.42;71.01;100324.53;18435893;32;20097;-65
2022/04/20 02:48:52;;;;;;;6.90;4.30;;;;;;;2.53;70.15;100338.59;18436053;32;20386;-65
2022/04/20 02:58:55;;;;;;;8.23;4.03;;;;;;;2.48;70.61;100341.03;18435668;32;20192;-65
2022/04/20 03:09:00;;;;;;;5.28;3.15;;;;;;;2.36;70.12;100344.12;18435485;32;20119;-65
2022/04/20 03:19:03;;;;;;;8.25;4.18;;;;;;;2.41;70.13;100344.25;18435263;32;20124;-64
2022/04/20 03:29:07;;;;;;;8.18;3.78;;;;;;;2.06;71.14;100349.22;18434151;32;20465;-64
2022/04/20 03:39:10;;;;;;;6.97;3.75;;;;;;;2.50;69.43;100343.66;18434697;32;20111;-64
2022/04/20 03:49:15;;;;;;;9.63;4.95;;;;;;;2.27;70.79;100348.13;18434492;32;20098;-64
2022/04/20 03:59:18;;;;;;;9.88;4.65;;;;;;;2.30;70.60;100341.38;18433818;32;20377;-65
2022/04/20 04:09:23;;;;;;;7.65;4.07;;;;;;;2.38;70.75;100349.31;18433543;32;20365;-64
2022/04/20 04:19:26;;;;;;;8.80;4.28;;;;;;;2.33;71.33;100353.47;18432635;32;20161;-64
2022/04/20 04:29:31;;;;;;;7.80;4.47;;;;;;;3.25;69.39;100361.25;18432774;32;20140;-65
2022/04/20 04:39:34;;;;;;;10.75;4.05;;;;;;;3.73;67.05;100363.34;18433284;32;20085;-65
2022/04/20 04:49:39;;;;;;;7.45;3.75;;;;;;;3.81;66.46;100376.44;18432940;32;20118;-64
2022/04/20 04:59:43;;;;;;;11.85;6.75;;;;;;;3.70;67.37;100385.63;18432353;32;20093;-65
2022/04/20 05:09:48;;;;;;;10.70;5.43;;;;;;;4.22;71.19;100391.22;18432088;32;20662;-66
2022/04/20 05:19:51;;;;;;;10.07;4.80;;;;;;;5.68;66.70;100391.59;18431736;32;20118;-66
2022/04/20 05:29:55;;;;;;;10.43;5.65;;;;;;;6.91;62.61;100392.59;18431395;32;20089;-66
2022/04/20 05:50:21;;;;;;;9.80;5.18;;;;;;;7.84;60.21;100395.34;18429148;32;20111;-66
2022/04/20 06:00:24;;;;;;;11.50;4.43;;;;;;;8.66;59.39;100382.94;18428529;32;20097;-66
2022/04/20 06:10:30;;;;;;;10.05;4.25;;;;;;;8.63;60.33;100390.75;18427445;32;20596;-66
2022/04/20 06:20:34;;;;;;;10.10;4.37;;;;;;;10.51;57.06;100372.81;18425938;32;20115;-66
2022/04/20 06:30:38;;;;;;;7.07;4.07;;;;;;;13.40;46.25;100361.72;18424682;32;20089;-66
2022/04/20 06:40:41;;;;;;;7.05;3.90;;;;;;;14.27;45.64;100355.09;18427226;32;20085;-66
2022/04/20 06:50:46;;;;;;;7.62;3.83;;;;;;;15.03;43.25;100347.50;18426486;32;20108;-66
2022/04/20 07:00:49;;;;;;;6.53;3.65;;;;;;;16.36;40.11;100332.06;18417318;32;20112;-67
2022/04/20 07:10:54;;;;;;;6.75;3.33;;;;;;;18.09;34.81;100319.75;18435514;32;20111;-65
2022/04/20 07:20:59;;;;;;;7.05;2.97;;;;;;;21.89;29.50;100315.25;18375135;32;20154;-65
2022/04/20 07:31:04;;;;;;;7.25;3.22;;;;;;;22.96;26.43;100311.44;18370562;32;20089;-64
2022/04/20 07:41:08;;;;;;;7.62;3.65;;;;;;;21.43;27.11;100314.87;18369960;32;20493;-64
2022/04/20 07:51:13;;;;;;;5.78;3.00;;;;;;;16.53;35.80;100322.81;18370145;32;20097;-64
2022/04/20 08:01:16;;;;;;;7.07;3.40;;;;;;;16.63;35.34;100325.13;18357083;32;20447;-64
2022/04/20 08:11:21;;;;;;;7.55;3.55;;;;;;;16.04;37.93;100321.47;18369356;32;20123;-64
2022/04/20 08:21:24;;;;;;;5.55;2.85;;;;;;;15.72;37.66;100319.63;18369542;32;20438;-63
2022/04/20 08:31:29;;;;;;;5.87;3.37;;;;;;;15.57;36.29;100299.81;18392729;32;20093;-63
2022/04/20 08:41:34;;;;;;;9.43;4.28;;;;;;;15.63;38.14;100284.75;18368651;32;20101;-63
2022/04/20 09:02:01;;;;;;;6.25;3.35;;;;;;;15.43;36.83;100260.72;18368258;32;20404;-64
2022/04/20 09:12:10;;;;;;;6.55;3.30;;;;;;;15.48;37.09;100258.84;18367662;32;20430;-64
2022/04/20 09:22:18;;;;;;;6.25;2.90;;;;;;;16.39;34.67;100252.94;18367085;32;20496;-64
2022/04/20 09:32:33;;;;;;;5.30;2.65;;;;;;;17.39;32.35;100244.66;18367471;32;20102;-63
2022/04/20 09:42:36;;;;;;;5.68;2.72;;;;;;;16.21;33.69;100247.28;18366604;32;20119;-64
2022/04/20 09:52:42;;;;;;;5.72;3.00;;;;;;;15.35;34.66;100250.37;18365836;32;20097;-63
2022/04/20 10:02:47;;;;;;;6.60;2.72;;;;;;;15.12;32.85;100239.50;18366702;32;20107;-63
2022/04/20 10:12:54;;;;;;;6.82;3.08;;;;;;;14.92;32.56;100234.72;18364739;32;20097;-63
2022/04/20 10:23:00;;;;;;;5.00;2.83;;;;;;;16.91;30.84;100228.56;18364480;32;20098;-63
2022/04/20 10:33:10;;;;;;;5.55;2.75;;;;;;;16.54;30.26;100229.69;18366272;32;20112;-64
2022/04/20 10:43:21;;;;;;;5.37;2.80;;;;;;;16.49;28.96;100225.41;18369465;32;20102;-64
2022/04/20 10:53:29;;;;;;;4.82;2.53;;;;;;;16.10;31.66;100215.12;18357654;32;20081;-63
2022/04/20 11:03:55;;;;;;;5.95;2.72;;;;;;;16.13;30.65;100217.69;18371186;32;20109;-63
2022/04/20 11:24:48;;;;;;;5.85;3.00;;;;;;;17.41;28.91;100190.06;18372129;32;20089;-64
2022/04/20 11:35:04;;;;;;;5.32;2.90;;;;;;;18.44;26.03;100176.69;18356455;32;20093;-64
2022/04/20 11:45:08;;;;;;;7.57;3.45;;;;;;;17.59;28.02;100170.94;18369770;32;20711;-64
2022/04/20 11:55:13;;;;;;;16.33;8.05;;;;;;;18.76;25.26;100158.72;18369920;32;20468;-63
2022/04/20 12:05:16;;;;;;;7.03;3.65;;;;;;;18.61;24.53;100165.50;18369778;32;20101;-64
2022/04/20 12:15:21;;;;;;;7.43;3.72;;;;;;;17.92;25.94;100166.28;18369622;32;20089;-63
2022/04/20 12:25:26;;;;;;;8.93;3.53;;;;;;;18.43;25.34;100160.00;18370404;32;20723;-65
2022/04/20 12:35:31;;;;;;;8.60;4.00;;;;;;;17.53;27.00;100147.41;18369291;32;20093;-64
2022/04/20 12:45:35;;;;;;;7.62;3.83;;;;;;;18.04;25.95;100147.41;18368227;32;20158;-62
2022/04/20 13:02:01;;;;;;;10.32;5.03;;;;;;;17.10;26.02;100148.91;18352759;32;20093;-65
2022/04/20 13:06:13;;;;;;;8.88;4.47;;;;;;;16.80;26.85;100151.59;18368632;32;20089;-65
2022/04/20 13:16:18;;;;;;;12.40;5.18;;;;;;;16.02;27.67;100148.66;18417117;32;20096;-64
2022/04/20 13:36:44;;;;;;;11.50;6.00;;;;;;;16.30;27.43;100143.44;18431262;32;20102;-64
2022/04/20 13:46:47;;;;;;;9.50;3.83;;;;;;;16.35;26.75;100138.03;18430636;32;20199;-64
2022/04/20 13:56:52;;;;;;;10.13;4.40;;;;;;;16.03;26.87;100137.22;18415157;32;20355;-64
2022/04/20 14:06:55;;;;;;;10.35;4.75;;;;;;;16.28;27.37;100139.13;18411325;32;20115;-64
2022/04/20 14:16:59;;;;;;;9.07;4.20;;;;;;;16.52;26.54;100136.66;18432071;32;20112;-63
2022/04/20 14:37:25;;;;;;;8.67;4.00;;;;;;;17.07;24.81;100126.13;18436419;32;20069;-64
2022/04/20 14:47:28;;;;;;;9.32;4.72;;;;;;;17.42;23.63;100129.34;18437306;32;20479;-65
2022/04/20 14:57:33;;;;;;;9.80;4.53;;;;;;;17.60;23.49;100132.25;18421569;32;20129;-64
2022/04/20 15:07:36;;;;;;;11.27;5.62;;;;;;;17.87;23.36;100135.63;18421477;32;20180;-64
2022/04/20 15:17:42;;;;;;;8.52;3.83;;;;;;;17.44;23.32;100142.44;18434567;32;20101;-64
2022/04/20 15:27:45;;;;;;;7.87;3.80;;;;;;;16.76;24.21;100138.50;18421692;32;20385;-65
2022/04/20 15:37:52;;;;;;;8.43;3.67;;;;;;;17.03;24.68;100133.28;18436037;32;20099;-64
2022/04/20 15:47:55;;;;;;;7.15;3.67;;;;;;;17.47;24.59;100137.94;18433665;32;20101;-64
2022/04/20 16:08:20;;;;;;;;;;;;;;;16.73;24.50;100146.53;18418182;32;20116;-65
2022/04/20 16:18:25;;;;;;;11.18;5.18;;;;;;;16.62;24.99;100132.81;18416443;32;20002;-64
2022/04/20 16:28:30;;;;;;;12.85;5.45;;;;;;;16.31;25.81;100142.53;18418276;32;20088;-65
2022/04/20 16:38:35;;;;;;;12.05;5.68;;;;;;;16.08;26.40;100143.22;18432061;32;20089;-64
2022/04/20 16:48:38;;;;;;;11.27;5.22;;;;;;;15.76;26.61;100148.47;18417183;32;20145;-65
2022/04/20 16:58:43;;;;;;;10.73;4.95;;;;;;;15.71;27.16;100150.38;18431328;32;20121;-65
2022/04/20 17:08:46;;;;;;;14.18;6.95;;;;;;;15.44;27.73;100150.22;18432306;32;20461;-65
2022/04/20 17:18:50;;;;;;;10.15;4.53;;;;;;;15.21;28.73;100158.69;18431633;32;20116;-65
2022/04/20 17:28:54;;;;;;;8.88;4.35;;;;;;;14.64;28.65;100160.91;18430908;32;20112;-65
2022/04/20 17:38:58;;;;;;;7.00;3.30;;;;;;;14.46;29.41;100160.41;18425610;32;20193;-64
2022/04/20 17:49:01;;;;;;;6.22;3.10;;;;;;;13.71;34.31;100175.03;18428050;32;20413;-65
2022/04/20 17:59:09;;;;;;;7.95;3.28;;;;;;;12.96;36.16;100190.25;18414526;32;20105;-64
2022/04/20 18:09:13;;;;;;;8.45;3.78;;;;;;;12.01;37.87;100204.59;18428304;32;20107;-65
2022/04/20 18:19:18;;;;;;;9.52;3.60;;;;;;;11.27;38.76;100204.41;18415097;32;20475;-64
2022/04/20 18:29:21;;;;;;;8.68;4.22;;;;;;;10.87;41.03;100221.25;18427936;32;20112;-65
2022/04/20 18:39:26;;;;;;;8.15;3.92;;;;;;;10.50;41.95;100218.84;18412986;32;20093;-64
2022/04/20 18:49:30;;;;;;;7.25;3.62;;;;;;;9.89;45.31;100233.81;18408819;32;20114;-64
2022/04/20 18:59:35;;;;;;;9.40;4.37;;;;;;;9.49;46.64;100229.50;18417704;32;20133;-65
2022/04/20 19:09:39;;;;;;;10.02;4.45;;;;;;;8.99;48.48;100229.47;18420687;32;20464;-64
2022/04/20 19:19:43;;;;;;;7.30;3.72;;;;;;;8.82;49.45;100243.31;18432530;32;20742;-64
2022/04/20 19:29:47;;;;;;;12.23;4.40;;;;;;;8.72;49.09;100229.41;18417566;32;20121;-64
2022/04/20 19:39:51;;;;;;;14.10;6.50;;;;;;;8.78;47.25;100225.97;18417289;32;20101;-64
2022/04/20 19:49:54;;;;;;;17.98;7.53;;;;;;;8.64;48.26;100232.88;18432038;32;20470;-64
2022/04/20 19:59:59;;;;;;;14.07;6.18;;;;;;;8.40;50.14;100242.31;18366811;32;20094;-64
2022/04/20 20:10:02;;;;;;;18.67;6.50;;;;;;;8.28;50.75;100237.91;18367092;32;20111;-64
2022/04/20 20:20:08;;;;;;;13.77;6.45;;;;;;;8.16;52.43;100237.00;18367285;32;20093;-64
2022/04/20 20:30:13;;;;;;;12.43;6.35;;;;;;;7.73;51.89;100234.13;18367526;32;20119;-64
2022/04/20 20:40:18;;;;;;;11.68;5.75;;;;;;;7.20;54.53;100247.56;18369535;32;20121;-64
2022/04/20 20:50:36;;;;;;;16.37;6.50;;;;;;;7.45;54.21;100236.50;18366102;32;20131;-64
2022/04/20 21:00:41;;;;;;;12.27;6.20;;;;;;;7.05;55.21;100247.41;18370751;32;20102;-64
2022/04/20 21:10:44;;;;;;;12.13;5.35;;;;;;;6.77;55.85;100245.41;18376268;32;20122;-64
2022/04/20 21:20:49;;;;;;;24.52;10.25;;;;;;;5.95;55.72;100247.81;18366722;32;20101;-64
2022/04/20 21:30:53;;;;;;;12.60;5.60;;;;;;;6.05;56.30;100250.56;18367563;32;20098;-64
2022/04/20 21:40:58;;;;;;;11.38;5.47;;;;;;;6.10;57.37;100243.72;18366952;32;20101;-64
2022/04/20 21:51:02;;;;;;;12.20;5.75;;;;;;;5.73;57.84;100245.75;18353457;32;20446;-64
2022/04/20 22:01:09;;;;;;;9.30;4.78;;;;;;;5.68;57.73;100250.87;18351322;32;20359;-64
2022/04/20 22:21:35;;;;;;;11.40;5.13;;;;;;;5.63;58.42;100257.69;18350795;32;20113;-64
2022/04/20 22:31:38;;;;;;;10.60;4.90;;;;;;;4.91;60.74;100264.25;18369530;32;20102;-64
2022/04/20 22:41:44;;;;;;;10.10;5.05;;;;;;;4.92;61.03;100273.75;18373968;32;20101;-64
2022/04/20 22:51:48;;;;;;;13.52;5.97;;;;;;;4.64;60.96;100274.91;18373099;32;20097;-64
2022/04/20 23:01:53;;;;;;;11.05;5.25;;;;;;;4.69;60.95;100276.75;18371814;32;20093;-64
2022/04/20 23:11:56;;;;;;;14.50;6.22;;;;;;;4.38;62.00;100275.28;18371779;32;20128;-64
2022/04/20 23:22:00;;;;;;;13.45;6.00;;;;;;;4.44;61.63;100278.84;18356985;32;20101;-64
2022/04/20 23:32:04;;;;;;;9.88;4.70;;;;;;;4.55;62.08;100284.25;18356938;32;20105;-64
2022/04/20 23:42:09;;;;;;;9.77;5.72;;;;;;;4.00;63.59;100276.16;18370423;32;20101;-64
2022/04/20 23:52:12;;;;;;;14.07;5.53;;;;;;;3.74;64.11;100279.00;18367863;32;117835;-64
